sensor_id;sensor_type;location;lat;lon;timestamp;P1;durP1;ratioP1;P2;durP2;ratioP2
84142;SDS011;74260;50.772;7.730;2023-12-20T00:00:20;9.57;;;5.75;;
84142;SDS011;74260;50.772;7.730;2023-12-20T00:00:52;10.07;;;6.25;;
84142;SDS011;74260;50.772;7.730;2023-12-20T00:01:24;10.73;;;6.63;;
84142;SDS011;74260;50.772;7.730;2023-12-20T00:01:54;11.68;;;6.35;;
84142;SDS011;74260;50.772;7.730;2023-12-20T00:02:25;13.75;;;6.40;;
84142;SDS011;74260;50.772;7.730;2023-12-20T00:02:55;10.32;;;6.50;;
84142;SDS011;74260;50.772;7.730;2023-12-20T00:03:26;10.18;;;6.40;;
84142;SDS011;74260;50.772;7.730;2023-12-20T00:04:28;8.82;;;5.32;;
84142;SDS011;74260;50.772;7.730;2023-12-20T00:05:00;11.05;;;5.88;;
84142;SDS011;74260;50.772;7.730;2023-12-20T00:05:31;13.18;;;6.25;;
84142;SDS011;74260;50.772;7.730;2023-12-20T00:06:05;11.18;;;6.90;;
84142;SDS011;74260;50.772;7.730;2023-12-20T00:06:36;11.02;;;6.80;;
84142;SDS011;74260;50.772;7.730;2023-12-20T00:07:07;15.45;;;7.05;;
84142;SDS011;74260;50.772;7.730;2023-12-20T00:07:37;12.25;;;6.93;;
84142;SDS011;74260;50.772;7.730;2023-12-20T00:08:07;12.60;;;7.35;;
84142;SDS011;74260;50.772;7.730;2023-12-20T00:08:38;11.30;;;6.63;;
84142;SDS011;74260;50.772;7.730;2023-12-20T00:09:08;10.27;;;6.22;;
84142;SDS011;74260;50.772;7.730;2023-12-20T00:09:39;9.98;;;6.07;;
84142;SDS011;74260;50.772;7.730;2023-12-20T00:10:09;12.20;;;6.95;;
84142;SDS011;74260;50.772;7.730;2023-12-20T00:10:40;8.85;;;6.22;;
84142;SDS011;74260;50.772;7.730;2023-12-20T00:11:10;11.98;;;6.38;;
84142;SDS011;74260;50.772;7.730;2023-12-20T00:11:41;10.27;;;6.28;;
84142;SDS011;74260;50.772;7.730;2023-12-20T00:12:15;10.25;;;5.90;;
84142;SDS011;74260;50.772;7.730;2023-12-20T00:12:46;9.45;;;6.00;;
84142;SDS011;74260;50.772;7.730;2023-12-20T00:13:16;8.73;;;5.47;;
84142;SDS011;74260;50.772;7.730;2023-12-20T00:13:48;9.40;;;5.55;;
84142;SDS011;74260;50.772;7.730;2023-12-20T00:14:18;7.72;;;4.97;;
84142;SDS011;74260;50.772;7.730;2023-12-20T00:14:50;7.68;;;4.97;;
84142;SDS011;74260;50.772;7.730;2023-12-20T00:15:22;7.70;;;4.97;;
84142;SDS011;74260;50.772;7.730;2023-12-20T00:15:55;10.00;;;5.68;;
84142;SDS011;74260;50.772;7.730;2023-12-20T00:16:25;9.43;;;5.43;;
84142;SDS011;74260;50.772;7.730;2023-12-20T00:16:55;8.63;;;5.25;;
84142;SDS011;74260;50.772;7.730;2023-12-20T00:17:26;10.18;;;5.30;;
84142;SDS011;74260;50.772;7.730;2023-12-20T00:17:56;10.40;;;5.65;;
84142;SDS011;74260;50.772;7.730;2023-12-20T00:18:28;9.35;;;5.30;;
84142;SDS011;74260;50.772;7.730;2023-12-20T00:19:00;9.68;;;5.55;;
84142;SDS011;74260;50.772;7.730;2023-12-20T00:19:31;8.40;;;5.60;;
84142;SDS011;74260;50.772;7.730;2023-12-20T00:20:02;8.80;;;5.60;;
84142;SDS011;74260;50.772;7.730;2023-12-20T00:20:33;8.13;;;5.20;;
84142;SDS011;74260;50.772;7.730;2023-12-20T00:21:04;9.05;;;5.40;;
84142;SDS011;74260;50.772;7.730;2023-12-20T00:21:36;9.82;;;5.05;;
84142;SDS011;74260;50.772;7.730;2023-12-20T00:22:08;7.85;;;5.18;;
84142;SDS011;74260;50.772;7.730;2023-12-20T00:22:39;8.82;;;5.20;;
84142;SDS011;74260;50.772;7.730;2023-12-20T00:23:10;8.65;;;5.45;;
84142;SDS011;74260;50.772;7.730;2023-12-20T00:23:40;8.80;;;5.68;;
84142;SDS011;74260;50.772;7.730;2023-12-20T00:24:12;9.93;;;5.90;;
84142;SDS011;74260;50.772;7.730;2023-12-20T00:24:42;8.55;;;5.65;;
84142;SDS011;74260;50.772;7.730;2023-12-20T00:25:15;8.32;;;5.38;;
84142;SDS011;74260;50.772;7.730;2023-12-20T00:25:46;8.98;;;5.70;;
84142;SDS011;74260;50.772;7.730;2023-12-20T00:26:18;8.93;;;5.30;;
84142;SDS011;74260;50.772;7.730;2023-12-20T00:26:50;9.27;;;5.30;;
84142;SDS011;74260;50.772;7.730;2023-12-20T00:27:22;9.25;;;5.25;;
84142;SDS011;74260;50.772;7.730;2023-12-20T00:27:54;9.07;;;6.05;;
84142;SDS011;74260;50.772;7.730;2023-12-20T00:28:25;9.70;;;5.68;;
84142;SDS011;74260;50.772;7.730;2023-12-20T00:28:56;8.90;;;5.90;;
84142;SDS011;74260;50.772;7.730;2023-12-20T00:29:28;10.75;;;6.68;;
84142;SDS011;74260;50.772;7.730;2023-12-20T00:29:58;10.52;;;6.47;;
84142;SDS011;74260;50.772;7.730;2023-12-20T00:30:29;14.05;;;7.32;;
84142;SDS011;74260;50.772;7.730;2023-12-20T00:31:00;10.63;;;6.53;;
84142;SDS011;74260;50.772;7.730;2023-12-20T00:31:32;12.68;;;6.45;;
84142;SDS011;74260;50.772;7.730;2023-12-20T00:32:03;10.13;;;6.20;;
84142;SDS011;74260;50.772;7.730;2023-12-20T00:32:34;8.68;;;5.88;;
84142;SDS011;74260;50.772;7.730;2023-12-20T00:33:06;11.90;;;5.80;;
84142;SDS011;74260;50.772;7.730;2023-12-20T00:33:38;9.43;;;6.10;;
84142;SDS011;74260;50.772;7.730;2023-12-20T00:34:13;8.20;;;5.43;;
84142;SDS011;74260;50.772;7.730;2023-12-20T00:34:43;10.30;;;5.93;;
84142;SDS011;74260;50.772;7.730;2023-12-20T00:35:14;10.18;;;6.07;;
84142;SDS011;74260;50.772;7.730;2023-12-20T00:35:46;10.45;;;5.93;;
84142;SDS011;74260;50.772;7.730;2023-12-20T00:36:17;9.65;;;5.68;;
84142;SDS011;74260;50.772;7.730;2023-12-20T00:36:47;8.93;;;5.47;;
84142;SDS011;74260;50.772;7.730;2023-12-20T00:37:18;8.80;;;5.97;;
84142;SDS011;74260;50.772;7.730;2023-12-20T00:37:50;7.82;;;5.38;;
84142;SDS011;74260;50.772;7.730;2023-12-20T00:38:21;9.38;;;5.93;;
84142;SDS011;74260;50.772;7.730;2023-12-20T00:38:52;9.88;;;5.35;;
84142;SDS011;74260;50.772;7.730;2023-12-20T00:39:24;8.52;;;5.47;;
84142;SDS011;74260;50.772;7.730;2023-12-20T00:39:56;11.18;;;6.10;;
84142;SDS011;74260;50.772;7.730;2023-12-20T00:40:26;10.98;;;5.70;;
84142;SDS011;74260;50.772;7.730;2023-12-20T00:40:57;10.20;;;5.65;;
84142;SDS011;74260;50.772;7.730;2023-12-20T00:41:27;38.28;;;7.95;;
84142;SDS011;74260;50.772;7.730;2023-12-20T00:41:58;36.53;;;6.90;;
84142;SDS011;74260;50.772;7.730;2023-12-20T00:42:28;10.90;;;5.25;;
84142;SDS011;74260;50.772;7.730;2023-12-20T00:42:59;8.75;;;5.30;;
84142;SDS011;74260;50.772;7.730;2023-12-20T00:43:29;12.43;;;6.22;;
84142;SDS011;74260;50.772;7.730;2023-12-20T00:43:59;10.00;;;5.75;;
84142;SDS011;74260;50.772;7.730;2023-12-20T00:44:35;9.07;;;5.68;;
84142;SDS011;74260;50.772;7.730;2023-12-20T00:45:06;10.95;;;6.07;;
84142;SDS011;74260;50.772;7.730;2023-12-20T00:45:36;10.25;;;5.72;;
84142;SDS011;74260;50.772;7.730;2023-12-20T00:46:07;13.27;;;6.07;;
84142;SDS011;74260;50.772;7.730;2023-12-20T00:46:37;10.65;;;5.63;;
84142;SDS011;74260;50.772;7.730;2023-12-20T00:47:08;11.50;;;6.00;;
84142;SDS011;74260;50.772;7.730;2023-12-20T00:47:40;10.55;;;6.30;;
84142;SDS011;74260;50.772;7.730;2023-12-20T00:48:12;8.70;;;5.43;;
84142;SDS011;74260;50.772;7.730;2023-12-20T00:48:46;9.57;;;5.45;;
84142;SDS011;74260;50.772;7.730;2023-12-20T00:49:16;15.68;;;6.53;;
84142;SDS011;74260;50.772;7.730;2023-12-20T00:49:48;11.73;;;6.05;;
84142;SDS011;74260;50.772;7.730;2023-12-20T00:50:18;11.48;;;6.30;;
84142;SDS011;74260;50.772;7.730;2023-12-20T00:50:51;10.20;;;5.95;;
84142;SDS011;74260;50.772;7.730;2023-12-20T00:51:22;11.70;;;6.03;;
84142;SDS011;74260;50.772;7.730;2023-12-20T00:51:53;8.30;;;5.30;;
84142;SDS011;74260;50.772;7.730;2023-12-20T00:52:24;9.73;;;5.63;;
84142;SDS011;74260;50.772;7.730;2023-12-20T00:52:55;11.70;;;5.88;;
84142;SDS011;74260;50.772;7.730;2023-12-20T00:53:26;8.45;;;5.63;;
84142;SDS011;74260;50.772;7.730;2023-12-20T00:53:56;9.63;;;5.50;;
84142;SDS011;74260;50.772;7.730;2023-12-20T00:54:28;8.73;;;5.47;;
84142;SDS011;74260;50.772;7.730;2023-12-20T00:55:03;10.18;;;5.20;;
84142;SDS011;74260;50.772;7.730;2023-12-20T00:55:34;7.63;;;4.95;;
84142;SDS011;74260;50.772;7.730;2023-12-20T00:56:04;10.88;;;5.18;;
84142;SDS011;74260;50.772;7.730;2023-12-20T00:56:36;10.25;;;5.68;;
84142;SDS011;74260;50.772;7.730;2023-12-20T00:57:08;9.75;;;5.40;;
84142;SDS011;74260;50.772;7.730;2023-12-20T00:57:39;9.32;;;5.40;;
84142;SDS011;74260;50.772;7.730;2023-12-20T00:58:10;11.55;;;5.60;;
84142;SDS011;74260;50.772;7.730;2023-12-20T00:58:40;7.95;;;5.30;;
84142;SDS011;74260;50.772;7.730;2023-12-20T00:59:11;10.57;;;6.05;;
84142;SDS011;74260;50.772;7.730;2023-12-20T00:59:42;9.88;;;5.45;;
84142;SDS011;74260;50.772;7.730;2023-12-20T01:00:14;8.18;;;4.72;;
84142;SDS011;74260;50.772;7.730;2023-12-20T01:00:46;9.57;;;5.25;;
84142;SDS011;74260;50.772;7.730;2023-12-20T01:01:17;7.90;;;5.03;;
84142;SDS011;74260;50.772;7.730;2023-12-20T01:01:48;7.57;;;4.53;;
84142;SDS011;74260;50.772;7.730;2023-12-20T01:02:21;7.15;;;4.60;;
84142;SDS011;74260;50.772;7.730;2023-12-20T01:02:51;7.22;;;4.40;;
84142;SDS011;74260;50.772;7.730;2023-12-20T01:03:22;7.18;;;4.43;;
84142;SDS011;74260;50.772;7.730;2023-12-20T01:03:53;7.70;;;4.95;;
84142;SDS011;74260;50.772;7.730;2023-12-20T01:04:23;8.15;;;4.88;;
84142;SDS011;74260;50.772;7.730;2023-12-20T01:04:54;8.18;;;5.10;;
84142;SDS011;74260;50.772;7.730;2023-12-20T01:05:25;7.55;;;4.90;;
84142;SDS011;74260;50.772;7.730;2023-12-20T01:05:55;6.78;;;4.68;;
84142;SDS011;74260;50.772;7.730;2023-12-20T01:06:26;6.35;;;4.25;;
84142;SDS011;74260;50.772;7.730;2023-12-20T01:06:57;8.90;;;4.75;;
84142;SDS011;74260;50.772;7.730;2023-12-20T01:07:28;7.70;;;4.72;;
84142;SDS011;74260;50.772;7.730;2023-12-20T01:07:58;8.70;;;4.95;;
84142;SDS011;74260;50.772;7.730;2023-12-20T01:08:32;7.85;;;5.07;;
84142;SDS011;74260;50.772;7.730;2023-12-20T01:09:05;8.18;;;5.35;;
84142;SDS011;74260;50.772;7.730;2023-12-20T01:09:36;9.68;;;5.35;;
84142;SDS011;74260;50.772;7.730;2023-12-20T01:10:06;9.40;;;5.05;;
84142;SDS011;74260;50.772;7.730;2023-12-20T01:10:37;9.38;;;5.40;;
84142;SDS011;74260;50.772;7.730;2023-12-20T01:11:08;8.38;;;4.90;;
84142;SDS011;74260;50.772;7.730;2023-12-20T01:11:38;7.95;;;5.10;;
84142;SDS011;74260;50.772;7.730;2023-12-20T01:12:10;8.23;;;4.70;;
84142;SDS011;74260;50.772;7.730;2023-12-20T01:12:42;7.80;;;4.85;;
84142;SDS011;74260;50.772;7.730;2023-12-20T01:13:13;10.45;;;5.45;;
84142;SDS011;74260;50.772;7.730;2023-12-20T01:13:44;9.05;;;5.20;;
84142;SDS011;74260;50.772;7.730;2023-12-20T01:14:14;10.32;;;5.45;;
84142;SDS011;74260;50.772;7.730;2023-12-20T01:14:45;9.38;;;5.63;;
84142;SDS011;74260;50.772;7.730;2023-12-20T01:15:16;13.52;;;5.60;;
84142;SDS011;74260;50.772;7.730;2023-12-20T01:15:46;8.45;;;5.03;;
84142;SDS011;74260;50.772;7.730;2023-12-20T01:16:18;7.53;;;4.78;;
84142;SDS011;74260;50.772;7.730;2023-12-20T01:16:48;9.10;;;4.70;;
84142;SDS011;74260;50.772;7.730;2023-12-20T01:17:20;7.88;;;4.18;;
84142;SDS011;74260;50.772;7.730;2023-12-20T01:17:51;7.53;;;4.07;;
84142;SDS011;74260;50.772;7.730;2023-12-20T01:18:21;8.77;;;4.90;;
84142;SDS011;74260;50.772;7.730;2023-12-20T01:18:52;8.82;;;4.28;;
84142;SDS011;74260;50.772;7.730;2023-12-20T01:19:22;7.03;;;4.43;;
84142;SDS011;74260;50.772;7.730;2023-12-20T01:19:53;6.50;;;4.22;;
84142;SDS011;74260;50.772;7.730;2023-12-20T01:20:24;6.95;;;4.70;;
84142;SDS011;74260;50.772;7.730;2023-12-20T01:20:56;7.43;;;4.65;;
84142;SDS011;74260;50.772;7.730;2023-12-20T01:21:26;7.70;;;4.47;;
84142;SDS011;74260;50.772;7.730;2023-12-20T01:22:01;6.07;;;3.58;;
84142;SDS011;74260;50.772;7.730;2023-12-20T01:22:32;7.90;;;4.25;;
84142;SDS011;74260;50.772;7.730;2023-12-20T01:23:02;8.70;;;4.38;;
84142;SDS011;74260;50.772;7.730;2023-12-20T01:23:33;6.50;;;4.05;;
84142;SDS011;74260;50.772;7.730;2023-12-20T01:24:04;5.95;;;3.63;;
84142;SDS011;74260;50.772;7.730;2023-12-20T01:24:35;7.32;;;4.00;;
84142;SDS011;74260;50.772;7.730;2023-12-20T01:25:06;5.90;;;3.40;;
84142;SDS011;74260;50.772;7.730;2023-12-20T01:25:39;9.65;;;3.47;;
84142;SDS011;74260;50.772;7.730;2023-12-20T01:26:09;6.28;;;3.70;;
84142;SDS011;74260;50.772;7.730;2023-12-20T01:27:12;4.78;;;3.03;;
84142;SDS011;74260;50.772;7.730;2023-12-20T01:27:42;4.63;;;3.00;;
84142;SDS011;74260;50.772;7.730;2023-12-20T01:28:14;6.70;;;2.80;;
84142;SDS011;74260;50.772;7.730;2023-12-20T01:28:44;5.32;;;3.30;;
84142;SDS011;74260;50.772;7.730;2023-12-20T01:29:16;5.10;;;3.42;;
84142;SDS011;74260;50.772;7.730;2023-12-20T01:29:47;6.65;;;3.35;;
84142;SDS011;74260;50.772;7.730;2023-12-20T01:30:17;5.20;;;3.20;;
84142;SDS011;74260;50.772;7.730;2023-12-20T01:30:48;6.43;;;3.42;;
84142;SDS011;74260;50.772;7.730;2023-12-20T01:31:19;4.95;;;2.92;;
84142;SDS011;74260;50.772;7.730;2023-12-20T01:31:49;4.75;;;3.10;;
84142;SDS011;74260;50.772;7.730;2023-12-20T01:32:20;7.38;;;3.72;;
84142;SDS011;74260;50.772;7.730;2023-12-20T01:32:51;5.32;;;3.53;;
84142;SDS011;74260;50.772;7.730;2023-12-20T01:33:21;5.22;;;3.65;;
84142;SDS011;74260;50.772;7.730;2023-12-20T01:33:52;5.38;;;3.45;;
84142;SDS011;74260;50.772;7.730;2023-12-20T01:34:24;5.63;;;3.50;;
84142;SDS011;74260;50.772;7.730;2023-12-20T01:34:56;5.78;;;3.80;;
84142;SDS011;74260;50.772;7.730;2023-12-20T01:35:27;6.72;;;3.70;;
84142;SDS011;74260;50.772;7.730;2023-12-20T01:35:57;5.28;;;3.55;;
84142;SDS011;74260;50.772;7.730;2023-12-20T01:36:29;6.20;;;3.17;;
84142;SDS011;74260;50.772;7.730;2023-12-20T01:37:00;5.93;;;3.50;;
84142;SDS011;74260;50.772;7.730;2023-12-20T01:37:30;5.72;;;3.50;;
84142;SDS011;74260;50.772;7.730;2023-12-20T01:38:01;4.38;;;3.08;;
84142;SDS011;74260;50.772;7.730;2023-12-20T01:38:32;5.55;;;3.30;;
84142;SDS011;74260;50.772;7.730;2023-12-20T01:39:03;4.97;;;3.20;;
84142;SDS011;74260;50.772;7.730;2023-12-20T01:39:35;4.90;;;3.28;;
84142;SDS011;74260;50.772;7.730;2023-12-20T01:40:05;4.30;;;2.97;;
84142;SDS011;74260;50.772;7.730;2023-12-20T01:40:36;5.82;;;3.47;;
84142;SDS011;74260;50.772;7.730;2023-12-20T01:41:09;6.07;;;3.35;;
84142;SDS011;74260;50.772;7.730;2023-12-20T01:41:40;4.93;;;3.30;;
84142;SDS011;74260;50.772;7.730;2023-12-20T01:42:10;8.52;;;4.05;;
84142;SDS011;74260;50.772;7.730;2023-12-20T01:42:41;6.85;;;3.40;;
84142;SDS011;74260;50.772;7.730;2023-12-20T01:43:11;6.72;;;4.05;;
84142;SDS011;74260;50.772;7.730;2023-12-20T01:43:43;5.35;;;3.60;;
84142;SDS011;74260;50.772;7.730;2023-12-20T01:44:14;7.40;;;4.22;;
84142;SDS011;74260;50.772;7.730;2023-12-20T01:44:46;6.90;;;4.13;;
84142;SDS011;74260;50.772;7.730;2023-12-20T01:45:18;7.40;;;3.75;;
84142;SDS011;74260;50.772;7.730;2023-12-20T01:45:49;6.72;;;3.67;;
84142;SDS011;74260;50.772;7.730;2023-12-20T01:46:19;6.13;;;3.80;;
84142;SDS011;74260;50.772;7.730;2023-12-20T01:46:50;6.60;;;3.65;;
84142;SDS011;74260;50.772;7.730;2023-12-20T01:47:22;5.63;;;3.30;;
84142;SDS011;74260;50.772;7.730;2023-12-20T01:47:53;6.63;;;3.88;;
84142;SDS011;74260;50.772;7.730;2023-12-20T01:48:26;6.75;;;3.50;;
84142;SDS011;74260;50.772;7.730;2023-12-20T01:48:58;6.32;;;3.35;;
84142;SDS011;74260;50.772;7.730;2023-12-20T01:49:28;7.07;;;3.88;;
84142;SDS011;74260;50.772;7.730;2023-12-20T01:49:59;4.95;;;3.38;;
84142;SDS011;74260;50.772;7.730;2023-12-20T01:50:32;6.28;;;3.75;;
84142;SDS011;74260;50.772;7.730;2023-12-20T01:51:05;8.10;;;3.80;;
84142;SDS011;74260;50.772;7.730;2023-12-20T01:51:37;6.28;;;3.40;;
84142;SDS011;74260;50.772;7.730;2023-12-20T01:52:08;7.18;;;3.05;;
84142;SDS011;74260;50.772;7.730;2023-12-20T01:52:41;5.47;;;2.50;;
84142;SDS011;74260;50.772;7.730;2023-12-20T01:53:14;5.03;;;2.70;;
84142;SDS011;74260;50.772;7.730;2023-12-20T01:53:45;5.35;;;2.70;;
84142;SDS011;74260;50.772;7.730;2023-12-20T01:54:17;6.75;;;2.67;;
84142;SDS011;74260;50.772;7.730;2023-12-20T01:54:50;5.43;;;2.50;;
84142;SDS011;74260;50.772;7.730;2023-12-20T01:55:21;5.72;;;2.58;;
84142;SDS011;74260;50.772;7.730;2023-12-20T01:55:52;4.97;;;2.58;;
84142;SDS011;74260;50.772;7.730;2023-12-20T01:56:56;6.53;;;2.63;;
84142;SDS011;74260;50.772;7.730;2023-12-20T01:57:29;5.82;;;2.35;;
84142;SDS011;74260;50.772;7.730;2023-12-20T01:58:00;4.78;;;2.17;;
84142;SDS011;74260;50.772;7.730;2023-12-20T01:58:31;11.00;;;2.88;;
84142;SDS011;74260;50.772;7.730;2023-12-20T01:59:04;10.63;;;2.90;;
84142;SDS011;74260;50.772;7.730;2023-12-20T01:59:38;6.90;;;2.67;;
84142;SDS011;74260;50.772;7.730;2023-12-20T02:00:11;7.30;;;2.65;;
84142;SDS011;74260;50.772;7.730;2023-12-20T02:00:42;10.38;;;2.70;;
84142;SDS011;74260;50.772;7.730;2023-12-20T02:01:14;8.00;;;2.72;;
84142;SDS011;74260;50.772;7.730;2023-12-20T02:02:16;5.05;;;2.47;;
84142;SDS011;74260;50.772;7.730;2023-12-20T02:02:47;4.80;;;2.42;;
84142;SDS011;74260;50.772;7.730;2023-12-20T02:03:19;7.65;;;2.70;;
84142;SDS011;74260;50.772;7.730;2023-12-20T02:03:50;5.03;;;2.63;;
84142;SDS011;74260;50.772;7.730;2023-12-20T02:04:21;6.90;;;2.67;;
84142;SDS011;74260;50.772;7.730;2023-12-20T02:04:53;7.40;;;2.45;;
84142;SDS011;74260;50.772;7.730;2023-12-20T02:05:24;5.68;;;2.80;;
84142;SDS011;74260;50.772;7.730;2023-12-20T02:05:56;4.68;;;2.40;;
84142;SDS011;74260;50.772;7.730;2023-12-20T02:06:28;6.80;;;2.58;;
84142;SDS011;74260;50.772;7.730;2023-12-20T02:07:01;7.28;;;2.60;;
84142;SDS011;74260;50.772;7.730;2023-12-20T02:07:32;9.48;;;2.92;;
84142;SDS011;74260;50.772;7.730;2023-12-20T02:08:35;5.57;;;2.78;;
84142;SDS011;74260;50.772;7.730;2023-12-20T02:09:06;5.00;;;2.40;;
84142;SDS011;74260;50.772;7.730;2023-12-20T02:10:09;5.97;;;2.50;;
84142;SDS011;74260;50.772;7.730;2023-12-20T02:10:39;7.03;;;2.60;;
84142;SDS011;74260;50.772;7.730;2023-12-20T02:11:10;9.15;;;2.70;;
84142;SDS011;74260;50.772;7.730;2023-12-20T02:11:42;6.18;;;2.72;;
84142;SDS011;74260;50.772;7.730;2023-12-20T02:12:13;8.32;;;3.00;;
84142;SDS011;74260;50.772;7.730;2023-12-20T02:12:43;6.32;;;2.65;;
84142;SDS011;74260;50.772;7.730;2023-12-20T02:13:14;7.63;;;3.03;;
84142;SDS011;74260;50.772;7.730;2023-12-20T02:13:44;9.05;;;2.97;;
84142;SDS011;74260;50.772;7.730;2023-12-20T02:14:16;11.90;;;3.30;;
84142;SDS011;74260;50.772;7.730;2023-12-20T02:14:48;8.30;;;2.60;;
84142;SDS011;74260;50.772;7.730;2023-12-20T02:15:18;5.90;;;2.53;;
84142;SDS011;74260;50.772;7.730;2023-12-20T02:15:50;6.05;;;3.00;;
84142;SDS011;74260;50.772;7.730;2023-12-20T02:16:21;6.65;;;3.33;;
84142;SDS011;74260;50.772;7.730;2023-12-20T02:16:52;5.97;;;2.97;;
84142;SDS011;74260;50.772;7.730;2023-12-20T02:17:22;7.60;;;4.63;;
84142;SDS011;74260;50.772;7.730;2023-12-20T02:17:53;10.18;;;3.47;;
84142;SDS011;74260;50.772;7.730;2023-12-20T02:18:24;6.55;;;3.08;;
84142;SDS011;74260;50.772;7.730;2023-12-20T02:18:56;9.68;;;3.40;;
84142;SDS011;74260;50.772;7.730;2023-12-20T02:19:27;8.13;;;3.22;;
84142;SDS011;74260;50.772;7.730;2023-12-20T02:19:57;8.73;;;3.00;;
84142;SDS011;74260;50.772;7.730;2023-12-20T02:20:28;11.93;;;3.15;;
84142;SDS011;74260;50.772;7.730;2023-12-20T02:21:00;8.40;;;3.15;;
84142;SDS011;74260;50.772;7.730;2023-12-20T02:21:32;5.20;;;3.28;;
84142;SDS011;74260;50.772;7.730;2023-12-20T02:22:40;10.23;;;3.08;;
84142;SDS011;74260;50.772;7.730;2023-12-20T02:23:12;9.60;;;3.38;;
84142;SDS011;74260;50.772;7.730;2023-12-20T02:23:43;5.10;;;3.25;;
84142;SDS011;74260;50.772;7.730;2023-12-20T02:24:13;9.50;;;3.60;;
84142;SDS011;74260;50.772;7.730;2023-12-20T02:24:44;11.05;;;3.78;;
84142;SDS011;74260;50.772;7.730;2023-12-20T02:25:15;10.50;;;3.47;;
84142;SDS011;74260;50.772;7.730;2023-12-20T02:25:46;11.60;;;3.70;;
84142;SDS011;74260;50.772;7.730;2023-12-20T02:26:16;8.07;;;3.83;;
84142;SDS011;74260;50.772;7.730;2023-12-20T02:26:48;7.90;;;3.70;;
84142;SDS011;74260;50.772;7.730;2023-12-20T02:27:19;8.52;;;3.72;;
84142;SDS011;74260;50.772;7.730;2023-12-20T02:27:50;7.00;;;3.45;;
84142;SDS011;74260;50.772;7.730;2023-12-20T02:28:22;7.22;;;3.40;;
84142;SDS011;74260;50.772;7.730;2023-12-20T02:28:53;7.63;;;3.50;;
84142;SDS011;74260;50.772;7.730;2023-12-20T02:29:24;9.75;;;3.58;;
84142;SDS011;74260;50.772;7.730;2023-12-20T02:29:56;10.00;;;3.75;;
84142;SDS011;74260;50.772;7.730;2023-12-20T02:30:28;13.30;;;4.30;;
84142;SDS011;74260;50.772;7.730;2023-12-20T02:31:00;9.73;;;3.38;;
84142;SDS011;74260;50.772;7.730;2023-12-20T02:31:32;11.60;;;3.38;;
84142;SDS011;74260;50.772;7.730;2023-12-20T02:32:03;10.50;;;3.95;;
84142;SDS011;74260;50.772;7.730;2023-12-20T02:32:34;13.43;;;3.83;;
84142;SDS011;74260;50.772;7.730;2023-12-20T02:33:07;10.80;;;3.83;;
84142;SDS011;74260;50.772;7.730;2023-12-20T02:33:40;5.88;;;3.40;;
84142;SDS011;74260;50.772;7.730;2023-12-20T02:34:12;8.57;;;3.60;;
84142;SDS011;74260;50.772;7.730;2023-12-20T02:34:42;9.55;;;3.97;;
84142;SDS011;74260;50.772;7.730;2023-12-20T02:35:14;9.95;;;4.07;;
84142;SDS011;74260;50.772;7.730;2023-12-20T02:35:44;8.43;;;3.35;;
84142;SDS011;74260;50.772;7.730;2023-12-20T02:36:16;9.05;;;4.05;;
84142;SDS011;74260;50.772;7.730;2023-12-20T02:36:47;8.30;;;3.63;;
84142;SDS011;74260;50.772;7.730;2023-12-20T02:37:18;16.85;;;4.43;;
84142;SDS011;74260;50.772;7.730;2023-12-20T02:37:50;18.92;;;4.60;;
84142;SDS011;74260;50.772;7.730;2023-12-20T02:38:20;9.93;;;3.60;;
84142;SDS011;74260;50.772;7.730;2023-12-20T02:38:52;10.35;;;3.90;;
84142;SDS011;74260;50.772;7.730;2023-12-20T02:39:23;11.70;;;3.92;;
84142;SDS011;74260;50.772;7.730;2023-12-20T02:39:54;11.93;;;4.05;;
84142;SDS011;74260;50.772;7.730;2023-12-20T02:40:25;12.23;;;4.32;;
84142;SDS011;74260;50.772;7.730;2023-12-20T02:40:56;13.05;;;3.78;;
84142;SDS011;74260;50.772;7.730;2023-12-20T02:41:27;10.90;;;3.63;;
84142;SDS011;74260;50.772;7.730;2023-12-20T02:41:58;7.18;;;4.18;;
84142;SDS011;74260;50.772;7.730;2023-12-20T02:42:29;14.77;;;4.03;;
84142;SDS011;74260;50.772;7.730;2023-12-20T02:43:00;10.07;;;3.83;;
84142;SDS011;74260;50.772;7.730;2023-12-20T02:43:32;11.70;;;4.40;;
84142;SDS011;74260;50.772;7.730;2023-12-20T02:44:03;10.50;;;4.20;;
84142;SDS011;74260;50.772;7.730;2023-12-20T02:44:34;11.13;;;4.18;;
84142;SDS011;74260;50.772;7.730;2023-12-20T02:45:06;10.18;;;4.15;;
84142;SDS011;74260;50.772;7.730;2023-12-20T02:45:38;9.73;;;4.10;;
84142;SDS011;74260;50.772;7.730;2023-12-20T02:46:08;11.20;;;4.15;;
84142;SDS011;74260;50.772;7.730;2023-12-20T02:46:41;14.20;;;4.35;;
84142;SDS011;74260;50.772;7.730;2023-12-20T02:47:12;8.98;;;4.05;;
84142;SDS011;74260;50.772;7.730;2023-12-20T02:47:42;12.82;;;4.07;;
84142;SDS011;74260;50.772;7.730;2023-12-20T02:48:14;10.15;;;4.45;;
84142;SDS011;74260;50.772;7.730;2023-12-20T02:48:44;13.93;;;4.85;;
84142;SDS011;74260;50.772;7.730;2023-12-20T02:49:15;9.85;;;4.07;;
84142;SDS011;74260;50.772;7.730;2023-12-20T02:49:45;12.75;;;4.95;;
84142;SDS011;74260;50.772;7.730;2023-12-20T02:50:16;10.15;;;4.20;;
84142;SDS011;74260;50.772;7.730;2023-12-20T02:50:46;12.55;;;5.22;;
84142;SDS011;74260;50.772;7.730;2023-12-20T02:51:50;12.77;;;4.40;;
84142;SDS011;74260;50.772;7.730;2023-12-20T02:52:21;10.75;;;4.50;;
84142;SDS011;74260;50.772;7.730;2023-12-20T02:53:24;13.55;;;4.10;;
84142;SDS011;74260;50.772;7.730;2023-12-20T02:53:55;18.17;;;4.55;;
84142;SDS011;74260;50.772;7.730;2023-12-20T02:54:26;12.25;;;4.80;;
84142;SDS011;74260;50.772;7.730;2023-12-20T02:54:58;14.75;;;5.00;;
84142;SDS011;74260;50.772;7.730;2023-12-20T02:55:29;13.40;;;5.47;;
84142;SDS011;74260;50.772;7.730;2023-12-20T02:56:00;19.63;;;5.75;;
84142;SDS011;74260;50.772;7.730;2023-12-20T02:56:33;14.32;;;6.15;;
84142;SDS011;74260;50.772;7.730;2023-12-20T02:57:04;12.13;;;5.50;;
84142;SDS011;74260;50.772;7.730;2023-12-20T02:57:36;12.25;;;5.93;;
84142;SDS011;74260;50.772;7.730;2023-12-20T02:58:11;10.50;;;5.80;;
84142;SDS011;74260;50.772;7.730;2023-12-20T02:58:42;15.18;;;5.95;;
84142;SDS011;74260;50.772;7.730;2023-12-20T02:59:14;15.38;;;5.85;;
84142;SDS011;74260;50.772;7.730;2023-12-20T02:59:46;15.93;;;5.90;;
84142;SDS011;74260;50.772;7.730;2023-12-20T03:00:16;10.77;;;5.88;;
84142;SDS011;74260;50.772;7.730;2023-12-20T03:00:49;29.13;;;6.97;;
84142;SDS011;74260;50.772;7.730;2023-12-20T03:01:19;15.38;;;6.45;;
84142;SDS011;74260;50.772;7.730;2023-12-20T03:01:50;16.73;;;7.30;;
84142;SDS011;74260;50.772;7.730;2023-12-20T03:02:21;14.68;;;6.40;;
84142;SDS011;74260;50.772;7.730;2023-12-20T03:02:52;16.55;;;6.88;;
84142;SDS011;74260;50.772;7.730;2023-12-20T03:03:23;14.85;;;6.32;;
84142;SDS011;74260;50.772;7.730;2023-12-20T03:03:54;18.48;;;7.35;;
84142;SDS011;74260;50.772;7.730;2023-12-20T03:04:24;20.02;;;7.10;;
84142;SDS011;74260;50.772;7.730;2023-12-20T03:04:56;16.45;;;7.10;;
84142;SDS011;74260;50.772;7.730;2023-12-20T03:05:30;17.13;;;7.30;;
84142;SDS011;74260;50.772;7.730;2023-12-20T03:06:01;14.68;;;7.18;;
84142;SDS011;74260;50.772;7.730;2023-12-20T03:06:31;16.77;;;7.20;;
84142;SDS011;74260;50.772;7.730;2023-12-20T03:07:02;15.43;;;6.95;;
84142;SDS011;74260;50.772;7.730;2023-12-20T03:07:33;16.40;;;7.07;;
84142;SDS011;74260;50.772;7.730;2023-12-20T03:08:03;16.63;;;7.43;;
84142;SDS011;74260;50.772;7.730;2023-12-20T03:08:34;18.60;;;7.40;;
84142;SDS011;74260;50.772;7.730;2023-12-20T03:09:07;18.30;;;7.20;;
84142;SDS011;74260;50.772;7.730;2023-12-20T03:09:37;15.85;;;7.28;;
84142;SDS011;74260;50.772;7.730;2023-12-20T03:10:07;12.45;;;6.80;;
84142;SDS011;74260;50.772;7.730;2023-12-20T03:10:39;14.18;;;6.63;;
84142;SDS011;74260;50.772;7.730;2023-12-20T03:11:11;15.85;;;7.28;;
84142;SDS011;74260;50.772;7.730;2023-12-20T03:11:42;15.35;;;7.75;;
84142;SDS011;74260;50.772;7.730;2023-12-20T03:12:13;17.25;;;7.18;;